createdAt,value
2018-01-15T00:01:33.527Z,16.97
2018-01-15T00:03:59.556Z,16.80
2018-01-15T00:06:25.609Z,16.43
2018-01-15T00:08:51.664Z,16.10
2018-01-15T00:11:17.681Z,13.67
2018-01-15T00:13:43.760Z,14.30
2018-01-15T00:16:09.912Z,14.27
2018-01-15T00:18:35.876Z,13.53
2018-01-15T00:21:01.916Z,15.30
2018-01-15T00:23:27.942Z,14.20
2018-01-15T00:25:53.863Z,16.17
2018-01-15T00:28:19.931Z,13.77
2018-01-15T00:30:45.984Z,13.67
2018-01-15T00:33:12.053Z,15.00
2018-01-15T00:35:38.057Z,14.70
2018-01-15T00:38:04.127Z,14.30
2018-01-15T00:40:30.164Z,14.37
2018-01-15T00:42:56.248Z,13.37
2018-01-15T00:45:22.288Z,13.70
2018-01-15T00:47:48.321Z,15.63
2018-01-15T00:50:14.260Z,15.47
2018-01-15T00:52:40.256Z,15.60
2018-01-15T00:55:06.330Z,13.43
2018-01-15T00:57:32.384Z,13.50
2018-01-15T00:59:58.400Z,14.10
2018-01-15T01:02:24.442Z,14.93
2018-01-15T01:04:50.455Z,14.00
2018-01-15T01:07:16.461Z,13.87
2018-01-15T01:09:42.507Z,14.57
2018-01-15T01:12:08.536Z,13.70
2018-01-15T01:14:34.552Z,14.00
2018-01-15T01:17:00.621Z,13.23
2018-01-15T01:19:26.616Z,12.43
2018-01-15T01:21:52.625Z,12.17
2018-01-15T01:24:18.732Z,13.50
2018-01-15T01:26:51.676Z,13.87
2018-01-15T01:29:18.093Z,12.13
2018-01-15T01:31:44.119Z,12.87
2018-01-15T01:34:10.117Z,14.07
2018-01-15T01:36:36.127Z,14.23
2018-01-15T01:39:02.153Z,14.17
2018-01-15T01:41:28.169Z,14.87
2018-01-15T01:43:54.255Z,14.00
2018-01-15T01:46:20.304Z,13.47
2018-01-15T01:48:57.589Z,13.97
2018-01-15T01:51:23.607Z,15.00
2018-01-15T01:53:49.664Z,16.30
2018-01-15T01:56:15.705Z,13.77
2018-01-15T01:58:41.721Z,14.63
2018-01-15T02:01:07.763Z,14.60
2018-01-15T02:03:33.796Z,14.63
2018-01-15T02:05:59.856Z,13.07
2018-01-15T02:08:25.865Z,14.43
2018-01-15T02:10:51.905Z,14.50
2018-01-15T02:13:17.936Z,14.43
2018-01-15T02:15:43.965Z,15.13
2018-01-15T02:18:09.984Z,14.00
2018-01-15T02:20:36.041Z,13.97
2018-01-15T02:23:02.092Z,14.20
2018-01-15T02:25:28.164Z,13.83
2018-01-15T02:27:54.164Z,14.30
2018-01-15T02:30:20.161Z,13.33
2018-01-15T02:32:46.195Z,13.03
2018-01-15T02:35:12.230Z,13.97
2018-01-15T02:37:38.232Z,12.93
2018-01-15T02:40:04.357Z,13.63
2018-01-15T02:42:30.356Z,15.27
2018-01-15T02:44:57.014Z,13.57
2018-01-15T02:47:23.026Z,16.03
2018-01-15T02:49:49.055Z,12.43
2018-01-15T02:52:15.099Z,13.67
2018-01-15T02:54:41.091Z,13.60
2018-01-15T02:57:07.184Z,13.00
2018-01-15T02:59:33.140Z,14.10
2018-01-15T03:01:59.177Z,15.07
2018-01-15T03:04:25.569Z,14.03
2018-01-15T03:06:51.560Z,12.90
2018-01-15T03:09:17.587Z,14.03
2018-01-15T03:11:43.596Z,12.27
2018-01-15T03:14:09.686Z,12.90
2018-01-15T03:16:35.700Z,13.63
2018-01-15T03:19:01.817Z,13.00
2018-01-15T03:21:27.923Z,11.50
2018-01-15T03:23:53.913Z,13.70
2018-01-15T03:26:19.948Z,13.03
2018-01-15T03:28:46.029Z,13.80
2018-01-15T03:31:12.044Z,12.60
2018-01-15T03:33:38.078Z,14.10
2018-01-15T03:36:04.100Z,15.73
2018-01-15T03:38:30.113Z,14.80
2018-01-15T03:40:56.220Z,14.60
2018-01-15T03:43:22.268Z,12.73
2018-01-15T03:45:48.295Z,15.63
2018-01-15T03:48:14.344Z,13.97
2018-01-15T03:50:40.392Z,17.47
2018-01-15T03:53:06.432Z,14.73
2018-01-15T03:55:32.465Z,17.33
2018-01-15T03:57:58.463Z,17.33
2018-01-15T04:00:24.492Z,16.90
2018-01-15T04:02:50.492Z,13.70
2018-01-15T04:05:16.481Z,13.17
2018-01-15T04:07:42.513Z,13.83
2018-01-15T04:10:08.512Z,12.77
2018-01-15T04:12:34.777Z,12.60
2018-01-15T04:15:00.795Z,12.70
2018-01-15T04:17:26.777Z,13.00
2018-01-15T04:19:52.793Z,13.10
2018-01-15T04:22:18.784Z,14.60
2018-01-15T04:24:44.815Z,12.17
2018-01-15T04:27:10.842Z,12.57
2018-01-15T04:29:36.864Z,12.67
2018-01-15T04:32:02.887Z,12.20
2018-01-15T04:34:28.909Z,13.00
2018-01-15T04:36:54.965Z,11.83
2018-01-15T04:39:21.005Z,13.30
2018-01-15T04:41:47.016Z,12.10
2018-01-15T04:44:13.061Z,13.13
2018-01-15T04:46:39.100Z,12.23
2018-01-15T04:49:05.296Z,13.20
2018-01-15T04:51:31.280Z,12.53
2018-01-15T04:53:57.391Z,13.60
2018-01-15T04:56:23.420Z,14.17
2018-01-15T04:58:49.409Z,12.17
2018-01-15T05:01:15.419Z,13.83
2018-01-15T05:03:41.336Z,14.40
2018-01-15T05:06:07.372Z,15.17
2018-01-15T05:08:33.444Z,14.63
2018-01-15T05:10:59.424Z,12.83
2018-01-15T05:13:25.372Z,12.90
2018-01-15T05:15:51.384Z,13.60
2018-01-15T05:18:17.428Z,15.27
2018-01-15T05:20:43.421Z,15.20
2018-01-15T05:23:09.477Z,14.60
2018-01-15T05:25:35.492Z,14.13
2018-01-15T05:28:01.534Z,15.90
2018-01-15T05:30:27.566Z,15.60
2018-01-15T05:32:53.608Z,15.17
2018-01-15T05:35:19.655Z,14.57
2018-01-15T05:37:45.672Z,16.40
2018-01-15T05:40:12.528Z,17.40
2018-01-15T05:42:38.537Z,14.80
2018-01-15T05:45:04.625Z,16.30
2018-01-15T05:47:30.696Z,15.23
2018-01-15T05:49:56.975Z,16.17
2018-01-15T05:52:22.992Z,16.17
2018-01-15T05:54:49.032Z,15.00
2018-01-15T05:57:15.119Z,15.70
2018-01-15T05:59:41.124Z,15.50
2018-01-15T06:02:07.172Z,15.07
2018-01-15T06:04:33.201Z,15.73
2018-01-15T06:06:59.201Z,14.93
2018-01-15T06:09:25.232Z,16.40
2018-01-15T06:11:51.288Z,14.70
2018-01-15T06:14:17.237Z,16.80
2018-01-15T06:16:43.265Z,17.57
2018-01-15T06:19:09.321Z,17.70
2018-01-15T06:21:35.396Z,16.57
2018-01-15T06:24:01.445Z,16.87
2018-01-15T06:26:27.476Z,17.17
2018-01-15T06:28:53.496Z,17.90
2018-01-15T06:31:19.485Z,18.07
2018-01-15T06:33:45.637Z,19.90
2018-01-15T06:36:11.660Z,19.53
2018-01-15T06:38:37.691Z,19.60
2018-01-15T06:41:03.756Z,18.20
2018-01-15T06:43:29.797Z,20.60
2018-01-15T06:45:55.793Z,17.80
2018-01-15T06:48:21.805Z,18.00
2018-01-15T06:50:47.825Z,19.77
2018-01-15T06:53:14.021Z,19.33
2018-01-15T06:55:40.025Z,19.87
2018-01-15T06:58:06.085Z,18.80
2018-01-15T07:00:32.107Z,18.80
2018-01-15T07:02:58.181Z,20.40
2018-01-15T07:05:24.260Z,21.20
2018-01-15T07:07:50.456Z,19.60
2018-01-15T07:10:16.432Z,20.10
2018-01-15T07:12:42.457Z,18.10
2018-01-15T07:15:15.357Z,18.97
2018-01-15T07:17:41.366Z,17.63
2018-01-15T07:20:07.377Z,17.87
2018-01-15T07:22:33.529Z,18.47
2018-01-15T07:24:59.552Z,20.83
2018-01-15T07:27:25.572Z,18.87
2018-01-15T07:29:51.659Z,18.20
2018-01-15T07:32:17.701Z,18.80
2018-01-15T07:34:43.771Z,18.97
2018-01-15T07:37:09.793Z,18.80
2018-01-15T07:39:35.929Z,20.70
2018-01-15T07:42:01.941Z,17.90
2018-01-15T07:44:27.925Z,18.00
2018-01-15T07:46:54.060Z,18.23
2018-01-15T07:49:20.085Z,17.93
2018-01-15T07:51:46.174Z,19.57
2018-01-15T07:54:12.995Z,18.53
2018-01-15T07:56:39.499Z,20.67
2018-01-15T07:59:06.581Z,16.10
2018-01-15T08:01:32.617Z,16.10
2018-01-15T08:03:58.624Z,16.00
2018-01-15T08:06:24.644Z,14.90
2018-01-15T08:08:50.676Z,14.30
2018-01-15T08:11:16.685Z,14.00
2018-01-15T08:13:42.717Z,15.33
2018-01-15T08:16:08.768Z,14.30
2018-01-15T08:18:34.795Z,14.00
2018-01-15T08:21:00.812Z,14.67
2018-01-15T08:23:26.836Z,15.63
2018-01-15T08:25:52.833Z,15.30
2018-01-15T08:28:18.861Z,17.00
2018-01-15T08:30:44.818Z,19.90
2018-01-15T08:33:10.765Z,15.90
2018-01-15T08:35:36.869Z,16.97
2018-01-15T08:38:02.892Z,14.90
2018-01-15T08:40:28.954Z,13.97
2018-01-15T08:42:55.005Z,15.53
2018-01-15T08:45:21.016Z,15.17
2018-01-15T08:47:47.045Z,15.00
2018-01-15T08:50:13.076Z,14.77
2018-01-15T08:52:39.081Z,14.70
2018-01-15T08:55:05.077Z,14.33
2018-01-15T08:57:31.136Z,16.17
2018-01-15T08:59:57.135Z,14.17
2018-01-15T09:02:23.165Z,15.17
2018-01-15T09:04:49.251Z,15.30
2018-01-15T09:07:15.288Z,16.57
2018-01-15T09:09:41.318Z,13.60
2018-01-15T09:12:07.339Z,14.70
2018-01-15T09:14:33.330Z,15.63
2018-01-15T09:16:59.360Z,14.77
2018-01-15T09:19:25.372Z,14.63
2018-01-15T09:21:51.411Z,15.80
2018-01-15T09:24:17.416Z,15.10
2018-01-15T09:26:43.440Z,16.33
2018-01-15T09:29:09.432Z,15.17
2018-01-15T09:31:35.500Z,15.00
2018-01-15T09:34:01.528Z,14.30
2018-01-15T09:36:27.548Z,14.60
2018-01-15T09:38:53.564Z,15.20
2018-01-15T09:41:19.541Z,13.60
2018-01-15T09:43:45.539Z,14.87
2018-01-15T09:46:11.526Z,14.97
2018-01-15T09:48:37.540Z,13.50
2018-01-15T09:51:03.613Z,13.37
2018-01-15T09:53:29.656Z,15.30
2018-01-15T09:55:55.674Z,16.00
2018-01-15T09:58:21.716Z,14.83
2018-01-15T10:00:47.789Z,13.70
2018-01-15T10:03:13.858Z,13.80
2018-01-15T10:05:39.980Z,15.67
2018-01-15T10:08:05.997Z,14.10
2018-01-15T10:10:32.005Z,14.53
2018-01-15T10:12:58.024Z,17.00
2018-01-15T10:15:24.064Z,16.20
2018-01-15T10:17:50.115Z,14.20
2018-01-15T10:20:16.253Z,14.30
2018-01-15T10:22:42.295Z,14.80
2018-01-15T10:25:08.389Z,14.17
2018-01-15T10:27:34.453Z,15.03
2018-01-15T10:30:00.548Z,14.13
2018-01-15T10:32:26.644Z,14.37
2018-01-15T10:34:52.640Z,13.93
2018-01-15T10:37:18.689Z,15.30
2018-01-15T10:39:44.708Z,18.70
2018-01-15T10:42:10.725Z,13.93
2018-01-15T10:44:36.764Z,14.23
2018-01-15T10:47:02.769Z,16.47
2018-01-15T10:49:28.745Z,14.40
2018-01-15T10:51:54.728Z,14.03
2018-01-15T10:54:20.808Z,16.20
2018-01-15T10:56:46.836Z,14.20
2018-01-15T10:59:12.900Z,15.30
2018-01-15T11:01:39.056Z,14.80
2018-01-15T11:04:05.065Z,14.40
2018-01-15T11:06:31.089Z,14.40
2018-01-15T11:08:57.089Z,13.73
2018-01-15T11:11:23.122Z,14.83
2018-01-15T11:13:49.184Z,14.20
2018-01-15T11:16:15.232Z,14.20
2018-01-15T11:18:41.266Z,14.17
2018-01-15T11:21:07.311Z,14.10
2018-01-15T11:23:33.304Z,17.50
2018-01-15T11:25:59.350Z,14.53
2018-01-15T11:28:25.356Z,16.13
2018-01-15T11:30:51.368Z,15.60
2018-01-15T11:33:17.425Z,14.93
2018-01-15T11:35:43.448Z,14.67
2018-01-15T11:38:09.443Z,15.20
2018-01-15T11:40:35.491Z,15.30
2018-01-15T11:43:01.525Z,13.40
2018-01-15T11:45:27.517Z,15.93
2018-01-15T11:47:53.573Z,15.60
2018-01-15T11:50:19.532Z,14.40
2018-01-15T11:52:45.544Z,16.87
2018-01-15T11:55:11.528Z,14.50
2018-01-15T11:57:37.558Z,15.87
2018-01-15T12:00:03.734Z,15.03
2018-01-15T12:02:29.858Z,15.50
2018-01-15T12:04:55.873Z,13.50
2018-01-15T12:07:21.896Z,14.50
2018-01-15T12:09:47.936Z,14.97
2018-01-15T12:12:13.955Z,13.13
2018-01-15T12:14:39.980Z,11.67
2018-01-15T12:25:51.064Z,14.13
2018-01-15T12:28:17.081Z,14.50
2018-01-15T12:30:43.100Z,14.00
2018-01-15T12:33:09.077Z,10.90
2018-01-15T12:35:35.081Z,14.40
2018-01-15T12:38:01.872Z,13.87
2018-01-15T12:40:27.912Z,13.83
2018-01-15T12:42:53.860Z,15.33
2018-01-15T12:45:19.901Z,15.37
2018-01-15T12:47:45.917Z,14.20
2018-01-15T12:50:11.945Z,14.47
2018-01-15T12:52:37.976Z,12.37
2018-01-15T12:55:04.143Z,12.33
2018-01-15T12:57:30.184Z,12.20
2018-01-15T12:59:56.125Z,13.50
2018-01-15T13:02:22.124Z,14.30
2018-01-15T13:04:48.133Z,13.37
2018-01-15T13:07:26.252Z,14.57
2018-01-15T13:09:52.258Z,13.33
2018-01-15T13:12:18.288Z,14.00
2018-01-15T13:14:44.320Z,14.00
2018-01-15T13:17:10.316Z,14.13
2018-01-15T13:19:36.937Z,13.20
2018-01-15T13:22:02.973Z,14.37
2018-01-15T13:24:28.984Z,13.20
2018-01-15T13:26:55.028Z,14.40
2018-01-15T13:29:21.125Z,13.67
2018-01-15T13:31:47.172Z,13.30
2018-01-15T13:34:13.106Z,12.80
2018-01-15T13:36:39.121Z,12.40
2018-01-15T13:39:05.132Z,13.93
2018-01-15T13:41:31.137Z,14.17
2018-01-15T13:43:57.137Z,13.67
2018-01-15T13:46:23.168Z,15.43
2018-01-15T13:48:49.194Z,14.60
2018-01-15T13:51:15.304Z,14.27
2018-01-15T13:53:41.305Z,15.83
2018-01-15T13:56:07.338Z,15.70
2018-01-15T13:58:33.367Z,14.47
2018-01-15T14:00:59.471Z,13.87
2018-01-15T14:03:25.494Z,14.77
2018-01-15T14:05:51.520Z,14.90
2018-01-15T14:08:17.610Z,16.27
2018-01-15T14:10:43.618Z,15.40
2018-01-15T14:13:09.667Z,16.40
2018-01-15T14:15:35.672Z,16.00
2018-01-15T14:18:01.617Z,16.70
2018-01-15T14:20:27.620Z,17.37
2018-01-15T14:22:53.637Z,18.53
2018-01-15T14:25:19.657Z,16.10
2018-01-15T14:27:45.701Z,18.30
2018-01-15T14:30:12.144Z,16.40
2018-01-15T14:32:38.116Z,15.80
2018-01-15T14:35:04.256Z,17.53
2018-01-15T14:37:30.208Z,16.03
2018-01-15T14:39:56.249Z,17.10
2018-01-15T14:42:22.280Z,17.10
2018-01-15T14:44:48.319Z,16.07
2018-01-15T14:47:14.341Z,19.20
2018-01-15T14:49:40.339Z,16.97
2018-01-15T14:52:06.391Z,15.27
2018-01-15T14:54:32.383Z,15.53
2018-01-15T14:56:58.336Z,16.53
2018-01-15T14:59:24.356Z,17.23
2018-01-15T15:01:50.404Z,15.57
2018-01-15T15:04:16.442Z,16.30
2018-01-15T15:06:42.449Z,14.70
2018-01-15T15:09:08.448Z,14.77
2018-01-15T15:11:34.480Z,16.00
2018-01-15T15:14:00.500Z,15.93
2018-01-15T15:16:26.583Z,16.67
2018-01-15T15:18:52.712Z,16.80
2018-01-15T15:21:18.770Z,16.47
2018-01-15T15:23:44.820Z,16.17
2018-01-15T15:26:10.845Z,17.10
2018-01-15T15:28:36.921Z,15.90
2018-01-15T15:31:02.938Z,14.70
2018-01-15T15:33:28.904Z,16.40
2018-01-15T15:35:54.996Z,13.77
2018-01-15T15:38:21.001Z,16.53
2018-01-15T15:40:47.069Z,17.17
2018-01-15T15:43:13.120Z,17.83
2018-01-15T15:45:39.204Z,15.60
2018-01-15T15:48:05.191Z,16.50
2018-01-15T15:50:31.212Z,18.20
2018-01-15T15:52:57.334Z,16.30
2018-01-15T15:55:23.390Z,16.40
2018-01-15T15:57:49.393Z,16.90
2018-01-15T16:00:15.463Z,16.77
2018-01-15T16:02:41.562Z,17.17
2018-01-15T16:05:07.720Z,17.50
2018-01-15T16:07:33.747Z,18.07
2018-01-15T16:09:59.781Z,14.40
2018-01-15T16:12:25.819Z,15.07
2018-01-15T16:14:51.905Z,15.83
2018-01-15T16:17:17.941Z,15.73
2018-01-15T16:19:43.985Z,16.20
2018-01-15T16:22:30.791Z,15.97
2018-01-15T16:24:56.813Z,16.40
2018-01-15T16:27:22.882Z,15.40
2018-01-15T16:29:48.923Z,14.40
2018-01-15T16:32:15.030Z,15.80
2018-01-15T16:34:41.143Z,15.70
2018-01-15T16:37:07.129Z,15.80
2018-01-15T16:39:33.200Z,15.77
2018-01-15T16:41:59.289Z,15.33
2018-01-15T16:44:25.343Z,15.97
2018-01-15T16:46:51.288Z,16.93
2018-01-15T16:49:17.306Z,18.80
2018-01-15T16:51:43.372Z,15.40
2018-01-15T16:54:09.344Z,14.53
2018-01-15T16:56:35.450Z,16.50
2018-01-15T16:59:01.520Z,14.20
2018-01-15T17:01:27.564Z,14.77
2018-01-15T17:03:53.618Z,15.97
2018-01-15T17:06:19.667Z,15.17
2018-01-15T17:08:45.825Z,14.67
2018-01-15T17:11:11.932Z,13.83
2018-01-15T17:13:37.964Z,15.60
2018-01-15T17:16:04.015Z,17.07
2018-01-15T17:18:30.096Z,15.27
2018-01-15T17:20:56.128Z,14.83
2018-01-15T17:23:22.231Z,16.23
2018-01-15T17:25:48.229Z,15.83
2018-01-15T17:28:14.264Z,14.87
2018-01-15T17:30:40.371Z,16.80
2018-01-15T17:33:06.503Z,17.20
2018-01-15T17:35:32.545Z,14.23
2018-01-15T17:37:58.648Z,14.97
2018-01-15T17:40:24.719Z,15.37
2018-01-15T17:42:50.890Z,16.70
2018-01-15T17:45:17.001Z,16.27
2018-01-15T17:47:43.456Z,16.70
2018-01-15T17:50:09.404Z,15.33
2018-01-15T17:52:36.613Z,14.80
2018-01-15T17:55:03.352Z,14.87
2018-01-15T17:57:29.441Z,14.10
2018-01-15T17:59:55.504Z,15.13
2018-01-15T18:02:21.634Z,16.13
2018-01-15T18:04:47.716Z,17.20
2018-01-15T18:07:13.762Z,16.43
2018-01-15T18:09:39.826Z,16.60
2018-01-15T18:12:06.884Z,14.67
2018-01-15T18:14:32.917Z,16.70
2018-01-15T18:16:58.935Z,16.00
2018-01-15T18:19:25.024Z,16.00
2018-01-15T18:21:51.076Z,16.90
2018-01-15T18:24:17.127Z,17.10
2018-01-15T18:26:43.198Z,15.37
2018-01-15T18:29:09.321Z,17.20
2018-01-15T18:31:35.333Z,15.47
2018-01-15T18:34:01.451Z,15.33
2018-01-15T18:36:27.525Z,14.33
2018-01-15T18:38:53.531Z,15.40
2018-01-15T18:41:19.579Z,14.50
2018-01-15T18:43:45.608Z,15.67
2018-01-15T18:46:11.634Z,13.70
2018-01-15T18:48:37.722Z,14.83
2018-01-15T18:51:03.819Z,15.10
2018-01-15T18:53:29.994Z,13.00
2018-01-15T18:55:56.009Z,13.27
2018-01-15T18:58:22.041Z,13.50
2018-01-15T19:00:48.109Z,14.67
2018-01-15T19:03:14.172Z,12.60
2018-01-15T19:05:40.241Z,13.10
2018-01-15T19:08:06.240Z,14.47
2018-01-15T19:10:32.370Z,12.87
2018-01-15T19:12:58.504Z,14.80
2018-01-15T19:15:24.518Z,13.30
2018-01-15T19:17:50.777Z,15.20
2018-01-15T19:20:16.792Z,16.93
2018-01-15T19:22:43.163Z,18.10
2018-01-15T19:25:09.219Z,14.70
2018-01-15T19:27:35.224Z,14.60
2018-01-15T19:30:01.365Z,14.30
2018-01-15T19:32:27.423Z,13.00
2018-01-15T19:34:54.278Z,13.00
2018-01-15T19:37:28.391Z,14.40
2018-01-15T19:39:54.497Z,14.30
2018-01-15T19:42:20.689Z,13.63
2018-01-15T19:44:52.780Z,13.77
2018-01-15T19:47:24.956Z,12.63
2018-01-15T19:49:57.005Z,13.50
2018-01-15T19:52:29.036Z,13.77
2018-01-15T19:55:01.194Z,13.57
2018-01-15T19:57:33.372Z,13.97
2018-01-15T20:00:05.608Z,12.77
2018-01-15T20:02:37.997Z,13.70
2018-01-15T20:08:13.296Z,12.73
2018-01-15T20:10:43.334Z,12.80
2018-01-15T20:13:09.397Z,11.00
2018-01-15T20:15:35.493Z,13.10
2018-01-15T20:18:01.615Z,13.80
2018-01-15T20:20:27.605Z,13.30
2018-01-15T20:22:53.699Z,14.80
2018-01-15T20:25:19.751Z,15.20
2018-01-15T20:27:45.768Z,14.10
2018-01-15T20:30:11.891Z,18.50
2018-01-15T20:32:37.975Z,12.83
2018-01-15T20:35:04.039Z,13.87
2018-01-15T20:37:30.046Z,11.90
2018-01-15T20:39:56.085Z,13.40
2018-01-15T20:42:22.208Z,13.00
2018-01-15T20:44:48.225Z,13.43
2018-01-15T20:47:14.284Z,13.53
2018-01-15T20:49:40.324Z,14.23
2018-01-15T20:52:06.332Z,15.07
2018-01-15T20:54:32.438Z,14.67
2018-01-15T20:56:58.535Z,14.47
2018-01-15T20:59:24.561Z,14.55
2018-01-15T21:01:50.572Z,14.97
2018-01-15T21:04:16.716Z,16.80
2018-01-15T21:06:42.732Z,14.60
2018-01-15T21:09:08.772Z,13.53
2018-01-15T21:11:34.835Z,14.70
2018-01-15T21:14:00.852Z,16.47
2018-01-15T21:16:28.132Z,13.17
2018-01-15T21:18:54.177Z,14.30
2018-01-15T21:21:20.256Z,14.00
2018-01-15T21:23:46.392Z,14.80
2018-01-15T21:26:12.483Z,14.57
2018-01-15T21:28:38.579Z,16.93
2018-01-15T21:31:04.591Z,17.97
2018-01-15T21:33:30.774Z,17.30
2018-01-15T21:36:03.786Z,16.17
2018-01-15T21:38:29.857Z,16.23
2018-01-15T21:40:55.940Z,18.50
2018-01-15T21:43:21.959Z,18.20
2018-01-15T21:45:48.008Z,17.77
2018-01-15T21:48:14.003Z,18.10
2018-01-15T21:50:40.042Z,17.53
2018-01-15T21:53:06.064Z,16.20
2018-01-15T21:55:32.106Z,19.30
2018-01-15T21:57:58.149Z,18.40
2018-01-15T22:00:24.195Z,18.27
2018-01-15T22:02:50.132Z,18.80
2018-01-15T22:05:16.129Z,18.00
2018-01-15T22:07:42.177Z,18.87
2018-01-15T22:10:08.208Z,21.77
2018-01-15T22:12:34.273Z,21.90
2018-01-15T22:15:00.284Z,17.90
2018-01-15T22:17:26.311Z,17.30
2018-01-15T22:19:52.369Z,17.00
2018-01-15T22:22:18.382Z,18.13
2018-01-15T22:24:44.459Z,19.00
2018-01-15T22:27:10.512Z,18.40
2018-01-15T22:29:36.557Z,16.73
2018-01-15T22:32:02.595Z,18.23
2018-01-15T22:34:28.722Z,17.63
2018-01-15T22:36:54.776Z,18.67
2018-01-15T22:39:20.783Z,15.20
2018-01-15T22:41:46.847Z,16.13
2018-01-15T22:44:12.840Z,18.10
2018-01-15T22:46:38.825Z,16.87
2018-01-15T22:49:04.850Z,15.47
2018-01-15T22:51:30.876Z,14.77
2018-01-15T22:53:56.901Z,14.40
2018-01-15T22:56:22.889Z,17.30
2018-01-15T22:58:48.979Z,14.03
2018-01-15T23:01:15.084Z,16.90
2018-01-15T23:03:41.133Z,15.43
2018-01-15T23:06:07.652Z,9.80
2018-01-15T23:08:33.701Z,13.20
2018-01-15T23:10:59.708Z,11.60
2018-01-15T23:13:25.728Z,12.97
2018-01-15T23:15:51.776Z,13.10
2018-01-15T23:18:17.835Z,12.40
2018-01-15T23:20:43.859Z,10.07
2018-01-15T23:23:09.856Z,11.70
2018-01-15T23:25:35.884Z,11.50
2018-01-15T23:28:01.885Z,11.03
2018-01-15T23:30:27.982Z,11.07
2018-01-15T23:32:53.988Z,10.33
2018-01-15T23:35:20.032Z,12.30
2018-01-15T23:37:46.056Z,12.40
2018-01-15T23:40:12.284Z,9.50
2018-01-15T23:42:38.346Z,10.67
2018-01-15T23:45:04.430Z,10.30
2018-01-15T23:47:30.416Z,9.40
2018-01-15T23:49:56.398Z,10.23
2018-01-15T23:52:22.383Z,10.60
2018-01-15T23:54:48.406Z,8.90
2018-01-15T23:57:14.363Z,10.67
2018-01-15T23:59:40.356Z,9.50
